sensor_id;sensor_type;location;lat;lon;timestamp;P1;durP1;ratioP1;P2;durP2;ratioP2
80199;SDS011;69520;44.900;-0.764;2023-06-24T00:01:51;6.75;;;2.28;;
80199;SDS011;69520;44.900;-0.764;2023-06-24T00:04:17;6.32;;;2.08;;
80199;SDS011;69520;44.900;-0.764;2023-06-24T00:06:44;7.73;;;2.23;;
80199;SDS011;69520;44.900;-0.764;2023-06-24T00:09:10;8.05;;;2.30;;
80199;SDS011;69520;44.900;-0.764;2023-06-24T00:11:36;7.07;;;2.40;;
80199;SDS011;69520;44.900;-0.764;2023-06-24T00:14:02;6.78;;;2.45;;
80199;SDS011;69520;44.900;-0.764;2023-06-24T00:16:28;7.00;;;2.40;;
80199;SDS011;69520;44.900;-0.764;2023-06-24T00:18:54;7.40;;;2.40;;
80199;SDS011;69520;44.900;-0.764;2023-06-24T00:21:25;6.50;;;2.20;;
80199;SDS011;69520;44.900;-0.764;2023-06-24T00:23:58;7.30;;;2.30;;
80199;SDS011;69520;44.900;-0.764;2023-06-24T00:26:27;6.72;;;2.40;;
80199;SDS011;69520;44.900;-0.764;2023-06-24T00:28:53;7.85;;;2.70;;
80199;SDS011;69520;44.900;-0.764;2023-06-24T00:31:19;6.90;;;2.43;;
80199;SDS011;69520;44.900;-0.764;2023-06-24T00:33:46;8.18;;;2.30;;
80199;SDS011;69520;44.900;-0.764;2023-06-24T00:36:14;7.00;;;2.42;;
80199;SDS011;69520;44.900;-0.764;2023-06-24T00:38:40;6.50;;;2.00;;
80199;SDS011;69520;44.900;-0.764;2023-06-24T00:41:06;7.93;;;2.40;;
80199;SDS011;69520;44.900;-0.764;2023-06-24T00:43:33;6.33;;;2.13;;
80199;SDS011;69520;44.900;-0.764;2023-06-24T00:45:59;7.07;;;2.33;;
80199;SDS011;69520;44.900;-0.764;2023-06-24T00:48:25;6.22;;;2.10;;
80199;SDS011;69520;44.900;-0.764;2023-06-24T00:50:51;8.20;;;2.30;;
80199;SDS011;69520;44.900;-0.764;2023-06-24T00:53:18;6.60;;;2.40;;
80199;SDS011;69520;44.900;-0.764;2023-06-24T00:55:50;6.60;;;2.30;;
80199;SDS011;69520;44.900;-0.764;2023-06-24T00:58:16;6.63;;;2.30;;
80199;SDS011;69520;44.900;-0.764;2023-06-24T01:00:45;7.20;;;2.60;;
80199;SDS011;69520;44.900;-0.764;2023-06-24T01:03:13;7.40;;;2.55;;
80199;SDS011;69520;44.900;-0.764;2023-06-24T01:05:41;6.68;;;2.15;;
80199;SDS011;69520;44.900;-0.764;2023-06-24T01:08:07;7.80;;;2.27;;
80199;SDS011;69520;44.900;-0.764;2023-06-24T01:10:34;7.05;;;2.50;;
80199;SDS011;69520;44.900;-0.764;2023-06-24T01:13:00;7.93;;;2.60;;
80199;SDS011;69520;44.900;-0.764;2023-06-24T01:15:27;7.00;;;2.20;;
80199;SDS011;69520;44.900;-0.764;2023-06-24T01:20:27;7.10;;;2.10;;
80199;SDS011;69520;44.900;-0.764;2023-06-24T01:33:15;6.93;;;2.20;;
80199;SDS011;69520;44.900;-0.764;2023-06-24T01:35:43;6.78;;;2.28;;
80199;SDS011;69520;44.900;-0.764;2023-06-24T01:38:13;8.05;;;2.40;;
80199;SDS011;69520;44.900;-0.764;2023-06-24T01:40:43;7.30;;;2.45;;
80199;SDS011;69520;44.900;-0.764;2023-06-24T01:43:09;7.35;;;2.45;;
80199;SDS011;69520;44.900;-0.764;2023-06-24T01:45:36;7.57;;;2.43;;
80199;SDS011;69520;44.900;-0.764;2023-06-24T01:48:11;7.88;;;2.40;;
80199;SDS011;69520;44.900;-0.764;2023-06-24T01:50:39;6.15;;;2.20;;
80199;SDS011;69520;44.900;-0.764;2023-06-24T01:53:08;6.50;;;2.13;;
80199;SDS011;69520;44.900;-0.764;2023-06-24T01:55:35;7.80;;;2.60;;
80199;SDS011;69520;44.900;-0.764;2023-06-24T01:58:03;7.50;;;2.40;;
80199;SDS011;69520;44.900;-0.764;2023-06-24T02:00:30;7.13;;;2.53;;
80199;SDS011;69520;44.900;-0.764;2023-06-24T02:02:57;6.43;;;2.13;;
80199;SDS011;69520;44.900;-0.764;2023-06-24T02:05:24;6.70;;;2.45;;
80199;SDS011;69520;44.900;-0.764;2023-06-24T02:07:50;7.70;;;2.38;;
80199;SDS011;69520;44.900;-0.764;2023-06-24T02:10:17;8.13;;;2.70;;
80199;SDS011;69520;44.900;-0.764;2023-06-24T02:12:45;8.32;;;2.88;;
80199;SDS011;69520;44.900;-0.764;2023-06-24T02:15:11;7.07;;;2.50;;
80199;SDS011;69520;44.900;-0.764;2023-06-24T02:17:37;7.30;;;2.65;;
80199;SDS011;69520;44.900;-0.764;2023-06-24T02:20:05;7.40;;;2.75;;
80199;SDS011;69520;44.900;-0.764;2023-06-24T02:22:33;7.33;;;2.70;;
80199;SDS011;69520;44.900;-0.764;2023-06-24T02:25:00;7.22;;;2.58;;
80199;SDS011;69520;44.900;-0.764;2023-06-24T02:27:26;7.68;;;2.60;;
80199;SDS011;69520;44.900;-0.764;2023-06-24T02:29:52;7.95;;;2.70;;
80199;SDS011;69520;44.900;-0.764;2023-06-24T02:32:18;7.13;;;2.60;;
80199;SDS011;69520;44.900;-0.764;2023-06-24T02:34:44;7.50;;;2.70;;
80199;SDS011;69520;44.900;-0.764;2023-06-24T02:37:10;7.38;;;2.70;;
80199;SDS011;69520;44.900;-0.764;2023-06-24T02:39:36;7.35;;;2.50;;
80199;SDS011;69520;44.900;-0.764;2023-06-24T02:42:08;8.63;;;2.35;;
80199;SDS011;69520;44.900;-0.764;2023-06-24T02:44:34;7.20;;;2.60;;
80199;SDS011;69520;44.900;-0.764;2023-06-24T02:47:00;6.93;;;2.40;;
80199;SDS011;69520;44.900;-0.764;2023-06-24T02:49:27;7.25;;;2.40;;
80199;SDS011;69520;44.900;-0.764;2023-06-24T02:51:53;7.38;;;2.50;;
80199;SDS011;69520;44.900;-0.764;2023-06-24T02:54:19;7.50;;;2.42;;
80199;SDS011;69520;44.900;-0.764;2023-06-24T02:56:45;6.72;;;2.38;;
80199;SDS011;69520;44.900;-0.764;2023-06-24T02:59:13;6.70;;;2.60;;
80199;SDS011;69520;44.900;-0.764;2023-06-24T03:01:39;7.97;;;2.78;;
80199;SDS011;69520;44.900;-0.764;2023-06-24T03:04:09;7.65;;;2.60;;
80199;SDS011;69520;44.900;-0.764;2023-06-24T03:06:36;6.57;;;2.40;;
80199;SDS011;69520;44.900;-0.764;2023-06-24T03:09:04;8.50;;;2.70;;
80199;SDS011;69520;44.900;-0.764;2023-06-24T03:11:32;8.50;;;2.57;;
80199;SDS011;69520;44.900;-0.764;2023-06-24T03:14:05;8.20;;;2.53;;
80199;SDS011;69520;44.900;-0.764;2023-06-24T03:16:31;8.57;;;3.00;;
80199;SDS011;69520;44.900;-0.764;2023-06-24T03:18:58;8.68;;;2.78;;
80199;SDS011;69520;44.900;-0.764;2023-06-24T03:21:24;6.70;;;2.60;;
80199;SDS011;69520;44.900;-0.764;2023-06-24T03:23:53;7.37;;;2.83;;
80199;SDS011;69520;44.900;-0.764;2023-06-24T03:26:19;8.38;;;2.40;;
80199;SDS011;69520;44.900;-0.764;2023-06-24T03:28:45;8.25;;;2.60;;
80199;SDS011;69520;44.900;-0.764;2023-06-24T03:31:11;8.98;;;2.67;;
80199;SDS011;69520;44.900;-0.764;2023-06-24T03:33:37;6.53;;;2.20;;
80199;SDS011;69520;44.900;-0.764;2023-06-24T03:36:03;6.97;;;2.10;;
80199;SDS011;69520;44.900;-0.764;2023-06-24T03:38:29;7.63;;;2.90;;
80199;SDS011;69520;44.900;-0.764;2023-06-24T03:40:56;7.63;;;2.65;;
80199;SDS011;69520;44.900;-0.764;2023-06-24T03:43:22;7.20;;;2.75;;
80199;SDS011;69520;44.900;-0.764;2023-06-24T03:45:48;8.10;;;2.58;;
80199;SDS011;69520;44.900;-0.764;2023-06-24T03:48:14;7.87;;;2.60;;
80199;SDS011;69520;44.900;-0.764;2023-06-24T03:50:40;7.68;;;2.50;;
80199;SDS011;69520;44.900;-0.764;2023-06-24T03:53:06;7.18;;;2.40;;
80199;SDS011;69520;44.900;-0.764;2023-06-24T03:55:32;7.30;;;2.40;;
80199;SDS011;69520;44.900;-0.764;2023-06-24T03:57:58;7.95;;;2.70;;
80199;SDS011;69520;44.900;-0.764;2023-06-24T04:00:24;7.37;;;2.30;;
80199;SDS011;69520;44.900;-0.764;2023-06-24T04:02:50;7.00;;;2.47;;
80199;SDS011;69520;44.900;-0.764;2023-06-24T04:05:18;7.45;;;2.40;;
80199;SDS011;69520;44.900;-0.764;2023-06-24T04:07:44;7.05;;;2.40;;
80199;SDS011;69520;44.900;-0.764;2023-06-24T04:10:12;7.68;;;2.50;;
80199;SDS011;69520;44.900;-0.764;2023-06-24T04:12:38;6.30;;;2.20;;
80199;SDS011;69520;44.900;-0.764;2023-06-24T04:15:04;8.07;;;2.40;;
80199;SDS011;69520;44.900;-0.764;2023-06-24T04:17:30;6.63;;;2.55;;
80199;SDS011;69520;44.900;-0.764;2023-06-24T04:19:57;6.50;;;2.25;;
80199;SDS011;69520;44.900;-0.764;2023-06-24T04:22:24;7.00;;;2.28;;
80199;SDS011;69520;44.900;-0.764;2023-06-24T04:24:50;6.67;;;2.17;;
80199;SDS011;69520;44.900;-0.764;2023-06-24T04:27:16;7.00;;;2.10;;
80199;SDS011;69520;44.900;-0.764;2023-06-24T04:29:42;6.53;;;2.08;;
80199;SDS011;69520;44.900;-0.764;2023-06-24T04:32:08;6.18;;;2.15;;
80199;SDS011;69520;44.900;-0.764;2023-06-24T04:34:34;6.95;;;2.17;;
80199;SDS011;69520;44.900;-0.764;2023-06-24T04:37:00;7.33;;;2.20;;
80199;SDS011;69520;44.900;-0.764;2023-06-24T04:39:26;6.53;;;2.15;;
80199;SDS011;69520;44.900;-0.764;2023-06-24T04:41:52;5.93;;;1.92;;
80199;SDS011;69520;44.900;-0.764;2023-06-24T04:44:18;6.25;;;1.90;;
80199;SDS011;69520;44.900;-0.764;2023-06-24T04:46:45;7.38;;;2.10;;
80199;SDS011;69520;44.900;-0.764;2023-06-24T04:49:11;7.10;;;2.00;;
80199;SDS011;69520;44.900;-0.764;2023-06-24T04:51:37;6.53;;;1.92;;
80199;SDS011;69520;44.900;-0.764;2023-06-24T04:54:05;7.45;;;2.00;;
80199;SDS011;69520;44.900;-0.764;2023-06-24T04:56:32;5.95;;;1.90;;
80199;SDS011;69520;44.900;-0.764;2023-06-24T04:58:59;6.93;;;1.95;;
80199;SDS011;69520;44.900;-0.764;2023-06-24T05:01:25;6.07;;;1.73;;
80199;SDS011;69520;44.900;-0.764;2023-06-24T05:03:51;6.65;;;1.70;;
80199;SDS011;69520;44.900;-0.764;2023-06-24T05:06:17;7.93;;;2.10;;
80199;SDS011;69520;44.900;-0.764;2023-06-24T05:08:43;6.97;;;2.33;;
80199;SDS011;69520;44.900;-0.764;2023-06-24T05:11:09;6.28;;;2.13;;
80199;SDS011;69520;44.900;-0.764;2023-06-24T05:13:35;7.40;;;1.97;;
80199;SDS011;69520;44.900;-0.764;2023-06-24T05:16:01;6.20;;;2.00;;
80199;SDS011;69520;44.900;-0.764;2023-06-24T05:18:27;6.53;;;2.22;;
80199;SDS011;69520;44.900;-0.764;2023-06-24T05:20:53;6.28;;;2.00;;
80199;SDS011;69520;44.900;-0.764;2023-06-24T05:23:19;6.60;;;2.20;;
80199;SDS011;69520;44.900;-0.764;2023-06-24T05:25:45;9.07;;;2.40;;
80199;SDS011;69520;44.900;-0.764;2023-06-24T05:28:11;7.70;;;2.20;;
80199;SDS011;69520;44.900;-0.764;2023-06-24T05:30:37;8.70;;;2.35;;
80199;SDS011;69520;44.900;-0.764;2023-06-24T05:33:03;9.38;;;2.30;;
80199;SDS011;69520;44.900;-0.764;2023-06-24T05:35:29;6.43;;;2.17;;
80199;SDS011;69520;44.900;-0.764;2023-06-24T05:37:55;6.67;;;2.27;;
80199;SDS011;69520;44.900;-0.764;2023-06-24T05:40:21;7.40;;;2.42;;
80199;SDS011;69520;44.900;-0.764;2023-06-24T05:42:47;7.50;;;2.65;;
80199;SDS011;69520;44.900;-0.764;2023-06-24T05:45:13;7.03;;;2.33;;
80199;SDS011;69520;44.900;-0.764;2023-06-24T05:47:39;7.25;;;2.55;;
80199;SDS011;69520;44.900;-0.764;2023-06-24T05:50:06;7.93;;;2.60;;
80199;SDS011;69520;44.900;-0.764;2023-06-24T05:52:32;7.78;;;2.60;;
80199;SDS011;69520;44.900;-0.764;2023-06-24T05:54:58;7.18;;;2.20;;
80199;SDS011;69520;44.900;-0.764;2023-06-24T05:57:24;8.25;;;2.65;;
80199;SDS011;69520;44.900;-0.764;2023-06-24T05:59:50;8.90;;;2.53;;
80199;SDS011;69520;44.900;-0.764;2023-06-24T06:02:15;7.23;;;2.87;;
80199;SDS011;69520;44.900;-0.764;2023-06-24T06:04:41;7.35;;;2.50;;
80199;SDS011;69520;44.900;-0.764;2023-06-24T06:07:08;9.75;;;2.88;;
80199;SDS011;69520;44.900;-0.764;2023-06-24T06:09:34;7.72;;;2.35;;
80199;SDS011;69520;44.900;-0.764;2023-06-24T06:12:00;8.18;;;2.75;;
80199;SDS011;69520;44.900;-0.764;2023-06-24T06:14:26;8.43;;;2.80;;
80199;SDS011;69520;44.900;-0.764;2023-06-24T06:16:52;7.40;;;2.60;;
80199;SDS011;69520;44.900;-0.764;2023-06-24T06:19:18;7.10;;;2.65;;
80199;SDS011;69520;44.900;-0.764;2023-06-24T06:21:44;6.90;;;2.70;;
80199;SDS011;69520;44.900;-0.764;2023-06-24T06:24:10;9.73;;;3.40;;
80199;SDS011;69520;44.900;-0.764;2023-06-24T06:26:41;9.73;;;2.90;;
80199;SDS011;69520;44.900;-0.764;2023-06-24T06:29:08;8.32;;;3.00;;
80199;SDS011;69520;44.900;-0.764;2023-06-24T06:31:34;7.45;;;2.70;;
80199;SDS011;69520;44.900;-0.764;2023-06-24T06:34:00;8.15;;;2.65;;
80199;SDS011;69520;44.900;-0.764;2023-06-24T06:36:27;6.90;;;2.67;;
80199;SDS011;69520;44.900;-0.764;2023-06-24T06:38:53;7.57;;;3.00;;
80199;SDS011;69520;44.900;-0.764;2023-06-24T06:41:19;8.18;;;2.95;;
80199;SDS011;69520;44.900;-0.764;2023-06-24T06:43:49;7.22;;;2.75;;
80199;SDS011;69520;44.900;-0.764;2023-06-24T06:46:15;8.02;;;3.03;;
80199;SDS011;69520;44.900;-0.764;2023-06-24T06:48:41;8.50;;;2.72;;
80199;SDS011;69520;44.900;-0.764;2023-06-24T06:51:07;9.00;;;3.17;;
80199;SDS011;69520;44.900;-0.764;2023-06-24T06:53:33;7.53;;;3.10;;
80199;SDS011;69520;44.900;-0.764;2023-06-24T06:55:59;7.82;;;3.03;;
80199;SDS011;69520;44.900;-0.764;2023-06-24T06:58:25;7.00;;;2.88;;
80199;SDS011;69520;44.900;-0.764;2023-06-24T07:00:51;7.05;;;2.85;;
80199;SDS011;69520;44.900;-0.764;2023-06-24T07:03:17;8.17;;;3.20;;
80199;SDS011;69520;44.900;-0.764;2023-06-24T07:05:43;8.70;;;2.90;;
80199;SDS011;69520;44.900;-0.764;2023-06-24T07:08:09;7.60;;;2.78;;
80199;SDS011;69520;44.900;-0.764;2023-06-24T07:10:35;8.77;;;3.45;;
80199;SDS011;69520;44.900;-0.764;2023-06-24T07:13:01;10.10;;;3.33;;
80199;SDS011;69520;44.900;-0.764;2023-06-24T07:15:27;7.70;;;3.27;;
80199;SDS011;69520;44.900;-0.764;2023-06-24T07:17:53;8.30;;;3.10;;
80199;SDS011;69520;44.900;-0.764;2023-06-24T07:20:20;8.07;;;3.13;;
80199;SDS011;69520;44.900;-0.764;2023-06-24T07:22:46;7.10;;;3.30;;
80199;SDS011;69520;44.900;-0.764;2023-06-24T07:25:12;8.85;;;3.00;;
80199;SDS011;69520;44.900;-0.764;2023-06-24T07:27:38;8.77;;;3.07;;
80199;SDS011;69520;44.900;-0.764;2023-06-24T07:30:04;7.30;;;3.30;;
80199;SDS011;69520;44.900;-0.764;2023-06-24T07:32:30;7.47;;;3.17;;
80199;SDS011;69520;44.900;-0.764;2023-06-24T07:34:56;8.15;;;3.22;;
80199;SDS011;69520;44.900;-0.764;2023-06-24T07:37:22;7.65;;;2.97;;
80199;SDS011;69520;44.900;-0.764;2023-06-24T07:39:49;7.80;;;3.23;;
80199;SDS011;69520;44.900;-0.764;2023-06-24T07:42:15;7.90;;;3.10;;
80199;SDS011;69520;44.900;-0.764;2023-06-24T07:44:44;9.80;;;3.17;;
80199;SDS011;69520;44.900;-0.764;2023-06-24T07:47:10;7.75;;;2.83;;
80199;SDS011;69520;44.900;-0.764;2023-06-24T07:49:36;7.35;;;3.00;;
80199;SDS011;69520;44.900;-0.764;2023-06-24T07:52:02;6.70;;;3.10;;
80199;SDS011;69520;44.900;-0.764;2023-06-24T07:54:29;7.40;;;3.10;;
80199;SDS011;69520;44.900;-0.764;2023-06-24T07:56:55;7.20;;;2.88;;
80199;SDS011;69520;44.900;-0.764;2023-06-24T07:59:22;7.82;;;3.10;;
80199;SDS011;69520;44.900;-0.764;2023-06-24T08:01:48;7.88;;;3.20;;
80199;SDS011;69520;44.900;-0.764;2023-06-24T08:04:14;7.70;;;3.10;;
80199;SDS011;69520;44.900;-0.764;2023-06-24T08:06:41;9.80;;;2.90;;
80199;SDS011;69520;44.900;-0.764;2023-06-24T08:09:07;6.70;;;2.63;;
80199;SDS011;69520;44.900;-0.764;2023-06-24T08:11:33;7.10;;;3.00;;
80199;SDS011;69520;44.900;-0.764;2023-06-24T08:13:59;7.95;;;2.80;;
80199;SDS011;69520;44.900;-0.764;2023-06-24T08:16:26;6.50;;;2.70;;
80199;SDS011;69520;44.900;-0.764;2023-06-24T08:18:52;9.38;;;3.10;;
80199;SDS011;69520;44.900;-0.764;2023-06-24T08:21:19;6.68;;;2.80;;
80199;SDS011;69520;44.900;-0.764;2023-06-24T08:23:45;7.22;;;2.70;;
80199;SDS011;69520;44.900;-0.764;2023-06-24T08:26:11;6.60;;;2.60;;
80199;SDS011;69520;44.900;-0.764;2023-06-24T08:28:37;7.00;;;2.50;;
80199;SDS011;69520;44.900;-0.764;2023-06-24T08:31:03;8.23;;;2.67;;
80199;SDS011;69520;44.900;-0.764;2023-06-24T08:33:29;7.57;;;2.95;;
80199;SDS011;69520;44.900;-0.764;2023-06-24T08:35:55;6.03;;;2.47;;
80199;SDS011;69520;44.900;-0.764;2023-06-24T08:38:21;6.60;;;2.53;;
80199;SDS011;69520;44.900;-0.764;2023-06-24T08:40:47;7.70;;;2.70;;
80199;SDS011;69520;44.900;-0.764;2023-06-24T08:43:15;6.53;;;2.47;;
80199;SDS011;69520;44.900;-0.764;2023-06-24T08:45:41;6.32;;;2.35;;
80199;SDS011;69520;44.900;-0.764;2023-06-24T08:48:07;7.53;;;2.67;;
80199;SDS011;69520;44.900;-0.764;2023-06-24T08:50:38;5.65;;;2.15;;
80199;SDS011;69520;44.900;-0.764;2023-06-24T08:53:06;8.10;;;2.70;;
80199;SDS011;69520;44.900;-0.764;2023-06-24T08:55:34;6.57;;;2.20;;
80199;SDS011;69520;44.900;-0.764;2023-06-24T08:58:02;7.30;;;2.53;;
80199;SDS011;69520;44.900;-0.764;2023-06-24T09:00:28;5.60;;;2.30;;
80199;SDS011;69520;44.900;-0.764;2023-06-24T09:02:55;6.60;;;2.60;;
80199;SDS011;69520;44.900;-0.764;2023-06-24T09:05:21;5.90;;;2.33;;
80199;SDS011;69520;44.900;-0.764;2023-06-24T09:07:47;5.63;;;1.98;;
80199;SDS011;69520;44.900;-0.764;2023-06-24T09:10:30;5.55;;;1.90;;
80199;SDS011;69520;44.900;-0.764;2023-06-24T09:13:02;5.97;;;2.10;;
80199;SDS011;69520;44.900;-0.764;2023-06-24T09:15:29;6.13;;;2.40;;
80199;SDS011;69520;44.900;-0.764;2023-06-24T09:17:56;6.13;;;2.33;;
80199;SDS011;69520;44.900;-0.764;2023-06-24T09:20:22;6.32;;;2.40;;
80199;SDS011;69520;44.900;-0.764;2023-06-24T09:22:48;5.53;;;2.25;;
80199;SDS011;69520;44.900;-0.764;2023-06-24T09:25:17;7.38;;;2.42;;
80199;SDS011;69520;44.900;-0.764;2023-06-24T09:27:50;6.50;;;2.15;;
80199;SDS011;69520;44.900;-0.764;2023-06-24T09:30:20;6.47;;;2.30;;
80199;SDS011;69520;44.900;-0.764;2023-06-24T09:32:47;6.00;;;2.13;;
80199;SDS011;69520;44.900;-0.764;2023-06-24T09:35:13;5.72;;;2.05;;
80199;SDS011;69520;44.900;-0.764;2023-06-24T09:37:40;6.50;;;2.55;;
80199;SDS011;69520;44.900;-0.764;2023-06-24T09:40:06;6.55;;;2.30;;
80199;SDS011;69520;44.900;-0.764;2023-06-24T09:42:34;6.07;;;2.37;;
80199;SDS011;69520;44.900;-0.764;2023-06-24T09:45:04;5.82;;;2.30;;
80199;SDS011;69520;44.900;-0.764;2023-06-24T09:47:30;6.10;;;2.28;;
80199;SDS011;69520;44.900;-0.764;2023-06-24T09:49:56;7.07;;;2.35;;
80199;SDS011;69520;44.900;-0.764;2023-06-24T09:52:22;5.90;;;2.00;;
80199;SDS011;69520;44.900;-0.764;2023-06-24T09:54:50;7.90;;;2.30;;
80199;SDS011;69520;44.900;-0.764;2023-06-24T09:57:18;6.13;;;2.40;;
80199;SDS011;69520;44.900;-0.764;2023-06-24T09:59:46;6.40;;;2.20;;
80199;SDS011;69520;44.900;-0.764;2023-06-24T10:02:13;6.38;;;2.40;;
80199;SDS011;69520;44.900;-0.764;2023-06-24T10:04:40;7.18;;;2.58;;
80199;SDS011;69520;44.900;-0.764;2023-06-24T10:07:07;6.53;;;2.33;;
80199;SDS011;69520;44.900;-0.764;2023-06-24T10:09:33;6.47;;;2.50;;
80199;SDS011;69520;44.900;-0.764;2023-06-24T10:11:59;6.38;;;2.33;;
80199;SDS011;69520;44.900;-0.764;2023-06-24T10:14:26;6.40;;;2.60;;
80199;SDS011;69520;44.900;-0.764;2023-06-24T10:16:56;6.55;;;2.33;;
80199;SDS011;69520;44.900;-0.764;2023-06-24T10:19:26;7.70;;;2.40;;
80199;SDS011;69520;44.900;-0.764;2023-06-24T10:21:58;5.95;;;2.13;;
80199;SDS011;69520;44.900;-0.764;2023-06-24T10:24:28;5.60;;;2.17;;
80199;SDS011;69520;44.900;-0.764;2023-06-24T10:26:55;7.35;;;2.40;;
80199;SDS011;69520;44.900;-0.764;2023-06-24T10:29:37;6.32;;;2.58;;
80199;SDS011;69520;44.900;-0.764;2023-06-24T10:32:06;6.17;;;2.30;;
80199;SDS011;69520;44.900;-0.764;2023-06-24T10:34:34;6.38;;;2.33;;
80199;SDS011;69520;44.900;-0.764;2023-06-24T10:39:48;5.80;;;2.28;;
80199;SDS011;69520;44.900;-0.764;2023-06-24T10:44:50;6.53;;;2.67;;
80199;SDS011;69520;44.900;-0.764;2023-06-24T10:47:17;5.97;;;2.58;;
80199;SDS011;69520;44.900;-0.764;2023-06-24T10:49:43;5.72;;;2.25;;
80199;SDS011;69520;44.900;-0.764;2023-06-24T10:52:12;6.93;;;2.42;;
80199;SDS011;69520;44.900;-0.764;2023-06-24T10:54:40;5.95;;;2.38;;
80199;SDS011;69520;44.900;-0.764;2023-06-24T10:57:07;6.30;;;2.63;;
80199;SDS011;69520;44.900;-0.764;2023-06-24T11:02:06;5.82;;;2.05;;
80199;SDS011;69520;44.900;-0.764;2023-06-24T11:04:33;5.82;;;2.30;;
80199;SDS011;69520;44.900;-0.764;2023-06-24T11:06:59;6.78;;;2.60;;
80199;SDS011;69520;44.900;-0.764;2023-06-24T11:09:26;6.23;;;2.50;;
80199;SDS011;69520;44.900;-0.764;2023-06-24T11:11:52;6.65;;;2.50;;
80199;SDS011;69520;44.900;-0.764;2023-06-24T11:14:21;7.47;;;2.40;;
80199;SDS011;69520;44.900;-0.764;2023-06-24T11:16:47;5.93;;;2.35;;
80199;SDS011;69520;44.900;-0.764;2023-06-24T11:19:14;6.40;;;2.38;;
80199;SDS011;69520;44.900;-0.764;2023-06-24T11:21:40;6.13;;;2.27;;
80199;SDS011;69520;44.900;-0.764;2023-06-24T11:24:06;5.60;;;2.20;;
80199;SDS011;69520;44.900;-0.764;2023-06-24T11:26:32;6.82;;;2.40;;
80199;SDS011;69520;44.900;-0.764;2023-06-24T11:28:58;6.05;;;2.20;;
80199;SDS011;69520;44.900;-0.764;2023-06-24T11:31:25;5.57;;;2.30;;
80199;SDS011;69520;44.900;-0.764;2023-06-24T11:33:51;6.53;;;2.30;;
80199;SDS011;69520;44.900;-0.764;2023-06-24T11:36:17;7.55;;;2.70;;
80199;SDS011;69520;44.900;-0.764;2023-06-24T11:38:47;7.00;;;2.58;;
80199;SDS011;69520;44.900;-0.764;2023-06-24T11:41:14;6.15;;;2.40;;
80199;SDS011;69520;44.900;-0.764;2023-06-24T11:43:44;6.55;;;2.55;;
80199;SDS011;69520;44.900;-0.764;2023-06-24T11:46:10;6.47;;;2.50;;
80199;SDS011;69520;44.900;-0.764;2023-06-24T11:48:41;6.85;;;2.60;;
80199;SDS011;69520;44.900;-0.764;2023-06-24T11:51:14;6.28;;;2.40;;
80199;SDS011;69520;44.900;-0.764;2023-06-24T11:53:40;7.00;;;2.72;;
80199;SDS011;69520;44.900;-0.764;2023-06-24T11:56:13;6.28;;;2.42;;
80199;SDS011;69520;44.900;-0.764;2023-06-24T11:58:39;11.83;;;3.10;;
80199;SDS011;69520;44.900;-0.764;2023-06-24T12:01:08;7.30;;;2.78;;
80199;SDS011;69520;44.900;-0.764;2023-06-24T12:03:34;6.53;;;2.60;;
80199;SDS011;69520;44.900;-0.764;2023-06-24T12:06:00;6.72;;;2.70;;
80199;SDS011;69520;44.900;-0.764;2023-06-24T12:08:26;6.57;;;2.42;;
80199;SDS011;69520;44.900;-0.764;2023-06-24T12:10:52;6.10;;;2.30;;
80199;SDS011;69520;44.900;-0.764;2023-06-24T12:13:18;6.82;;;2.50;;
80199;SDS011;69520;44.900;-0.764;2023-06-24T12:15:44;6.70;;;2.70;;
80199;SDS011;69520;44.900;-0.764;2023-06-24T12:18:11;5.50;;;2.25;;
80199;SDS011;69520;44.900;-0.764;2023-06-24T12:20:39;6.82;;;2.55;;
80199;SDS011;69520;44.900;-0.764;2023-06-24T12:23:05;6.10;;;2.60;;
80199;SDS011;69520;44.900;-0.764;2023-06-24T12:25:31;6.70;;;2.40;;
80199;SDS011;69520;44.900;-0.764;2023-06-24T12:27:57;5.88;;;2.47;;
80199;SDS011;69520;44.900;-0.764;2023-06-24T12:30:24;6.03;;;2.42;;
80199;SDS011;69520;44.900;-0.764;2023-06-24T12:32:50;6.47;;;2.70;;
80199;SDS011;69520;44.900;-0.764;2023-06-24T12:35:16;5.83;;;2.57;;
80199;SDS011;69520;44.900;-0.764;2023-06-24T12:37:42;6.20;;;2.47;;
80199;SDS011;69520;44.900;-0.764;2023-06-24T12:40:10;5.88;;;2.35;;
80199;SDS011;69520;44.900;-0.764;2023-06-24T12:42:36;6.30;;;2.60;;
80199;SDS011;69520;44.900;-0.764;2023-06-24T12:45:02;13.00;;;3.10;;
80199;SDS011;69520;44.900;-0.764;2023-06-24T12:47:28;5.93;;;2.40;;
80199;SDS011;69520;44.900;-0.764;2023-06-24T12:49:54;6.47;;;2.40;;
80199;SDS011;69520;44.900;-0.764;2023-06-24T12:52:20;7.45;;;3.00;;
80199;SDS011;69520;44.900;-0.764;2023-06-24T12:54:46;5.82;;;2.28;;
80199;SDS011;69520;44.900;-0.764;2023-06-24T12:57:13;6.78;;;2.47;;
80199;SDS011;69520;44.900;-0.764;2023-06-24T12:59:39;7.67;;;3.40;;
80199;SDS011;69520;44.900;-0.764;2023-06-24T13:02:06;6.93;;;2.60;;
80199;SDS011;69520;44.900;-0.764;2023-06-24T13:04:32;6.43;;;2.40;;
80199;SDS011;69520;44.900;-0.764;2023-06-24T13:06:58;5.40;;;1.98;;
80199;SDS011;69520;44.900;-0.764;2023-06-24T13:09:24;6.45;;;2.20;;
80199;SDS011;69520;44.900;-0.764;2023-06-24T13:11:49;5.63;;;2.30;;
80199;SDS011;69520;44.900;-0.764;2023-06-24T13:14:16;5.60;;;2.40;;
80199;SDS011;69520;44.900;-0.764;2023-06-24T13:16:42;6.38;;;2.25;;
80199;SDS011;69520;44.900;-0.764;2023-06-24T13:19:08;6.10;;;2.22;;
80199;SDS011;69520;44.900;-0.764;2023-06-24T13:21:34;6.13;;;2.30;;
80199;SDS011;69520;44.900;-0.764;2023-06-24T13:24:00;5.30;;;2.20;;
80199;SDS011;69520;44.900;-0.764;2023-06-24T13:26:26;5.88;;;2.30;;
80199;SDS011;69520;44.900;-0.764;2023-06-24T13:28:53;5.75;;;2.05;;
80199;SDS011;69520;44.900;-0.764;2023-06-24T13:31:19;5.50;;;2.20;;
80199;SDS011;69520;44.900;-0.764;2023-06-24T13:33:45;6.38;;;2.22;;
80199;SDS011;69520;44.900;-0.764;2023-06-24T13:36:13;5.57;;;2.30;;
80199;SDS011;69520;44.900;-0.764;2023-06-24T13:38:51;5.90;;;2.20;;
80199;SDS011;69520;44.900;-0.764;2023-06-24T13:41:17;5.43;;;2.20;;
80199;SDS011;69520;44.900;-0.764;2023-06-24T13:43:43;6.40;;;2.58;;
80199;SDS011;69520;44.900;-0.764;2023-06-24T13:46:09;5.55;;;2.28;;
80199;SDS011;69520;44.900;-0.764;2023-06-24T13:48:36;5.70;;;2.50;;
80199;SDS011;69520;44.900;-0.764;2023-06-24T13:51:02;5.75;;;2.30;;
80199;SDS011;69520;44.900;-0.764;2023-06-24T13:53:28;5.82;;;2.17;;
80199;SDS011;69520;44.900;-0.764;2023-06-24T13:55:54;6.00;;;2.33;;
80199;SDS011;69520;44.900;-0.764;2023-06-24T13:58:20;6.20;;;2.13;;
80199;SDS011;69520;44.900;-0.764;2023-06-24T14:00:46;5.13;;;2.10;;
80199;SDS011;69520;44.900;-0.764;2023-06-24T14:03:12;7.93;;;2.30;;
80199;SDS011;69520;44.900;-0.764;2023-06-24T14:05:38;6.30;;;2.38;;
80199;SDS011;69520;44.900;-0.764;2023-06-24T14:08:07;6.95;;;2.40;;
80199;SDS011;69520;44.900;-0.764;2023-06-24T14:10:34;6.30;;;2.50;;
80199;SDS011;69520;44.900;-0.764;2023-06-24T14:13:00;5.87;;;2.33;;
80199;SDS011;69520;44.900;-0.764;2023-06-24T14:15:26;5.70;;;2.20;;
80199;SDS011;69520;44.900;-0.764;2023-06-24T14:17:52;5.35;;;2.13;;
80199;SDS011;69520;44.900;-0.764;2023-06-24T14:20:18;6.47;;;2.20;;
80199;SDS011;69520;44.900;-0.764;2023-06-24T14:22:44;7.18;;;2.40;;
80199;SDS011;69520;44.900;-0.764;2023-06-24T14:25:10;5.90;;;2.23;;
80199;SDS011;69520;44.900;-0.764;2023-06-24T14:27:36;6.93;;;2.33;;
80199;SDS011;69520;44.900;-0.764;2023-06-24T14:30:02;6.07;;;2.28;;
80199;SDS011;69520;44.900;-0.764;2023-06-24T14:32:28;6.30;;;2.47;;
80199;SDS011;69520;44.900;-0.764;2023-06-24T14:34:54;6.35;;;2.30;;
80199;SDS011;69520;44.900;-0.764;2023-06-24T14:37:20;7.17;;;2.47;;
80199;SDS011;69520;44.900;-0.764;2023-06-24T14:39:46;6.45;;;2.30;;
80199;SDS011;69520;44.900;-0.764;2023-06-24T14:42:12;5.95;;;2.20;;
80199;SDS011;69520;44.900;-0.764;2023-06-24T14:44:38;6.07;;;2.30;;
80199;SDS011;69520;44.900;-0.764;2023-06-24T14:47:05;6.38;;;2.47;;
80199;SDS011;69520;44.900;-0.764;2023-06-24T14:49:31;6.33;;;2.50;;
80199;SDS011;69520;44.900;-0.764;2023-06-24T14:51:57;6.15;;;2.30;;